sensor_id;sensor_type;location;lat;lon;timestamp;P1;durP1;ratioP1;P2;durP2;ratioP2
55461;SDS011;41327;45.102;20.624;2024-03-02T00:00:50;13.40;;;6.68;;
55461;SDS011;41327;45.102;20.624;2024-03-02T00:03:17;12.82;;;7.35;;
55461;SDS011;41327;45.102;20.624;2024-03-02T00:05:43;14.77;;;8.05;;
55461;SDS011;41327;45.102;20.624;2024-03-02T00:08:08;16.52;;;7.13;;
55461;SDS011;41327;45.102;20.624;2024-03-02T00:10:38;13.00;;;7.20;;
55461;SDS011;41327;45.102;20.624;2024-03-02T00:13:06;13.13;;;6.68;;
55461;SDS011;41327;45.102;20.624;2024-03-02T00:18:11;11.15;;;6.65;;
55461;SDS011;41327;45.102;20.624;2024-03-02T00:20:40;10.95;;;6.88;;
55461;SDS011;41327;45.102;20.624;2024-03-02T00:23:06;12.10;;;5.60;;
55461;SDS011;41327;45.102;20.624;2024-03-02T00:25:39;11.38;;;5.13;;
55461;SDS011;41327;45.102;20.624;2024-03-02T00:30:54;10.07;;;6.20;;
55461;SDS011;41327;45.102;20.624;2024-03-02T00:33:25;8.82;;;5.63;;
55461;SDS011;41327;45.102;20.624;2024-03-02T00:35:51;7.53;;;4.88;;
55461;SDS011;41327;45.102;20.624;2024-03-02T00:38:17;11.73;;;5.80;;
55461;SDS011;41327;45.102;20.624;2024-03-02T00:40:43;7.75;;;5.25;;
55461;SDS011;41327;45.102;20.624;2024-03-02T00:46:02;7.28;;;5.43;;
55461;SDS011;41327;45.102;20.624;2024-03-02T00:48:28;7.45;;;4.35;;
55461;SDS011;41327;45.102;20.624;2024-03-02T00:50:56;8.45;;;5.47;;
55461;SDS011;41327;45.102;20.624;2024-03-02T00:53:23;7.72;;;5.18;;
55461;SDS011;41327;45.102;20.624;2024-03-02T00:55:51;7.75;;;4.80;;
55461;SDS011;41327;45.102;20.624;2024-03-02T00:58:17;11.45;;;5.47;;
55461;SDS011;41327;45.102;20.624;2024-03-02T01:00:43;6.95;;;4.72;;
55461;SDS011;41327;45.102;20.624;2024-03-02T01:03:08;7.00;;;4.38;;
55461;SDS011;41327;45.102;20.624;2024-03-02T01:05:35;9.35;;;5.28;;
55461;SDS011;41327;45.102;20.624;2024-03-02T01:08:01;8.02;;;4.47;;
55461;SDS011;41327;45.102;20.624;2024-03-02T01:10:27;7.78;;;4.97;;
55461;SDS011;41327;45.102;20.624;2024-03-02T01:12:53;8.15;;;4.90;;
55461;SDS011;41327;45.102;20.624;2024-03-02T01:15:18;9.02;;;4.90;;
55461;SDS011;41327;45.102;20.624;2024-03-02T01:17:48;7.18;;;4.30;;
55461;SDS011;41327;45.102;20.624;2024-03-02T01:20:14;5.20;;;3.30;;
55461;SDS011;41327;45.102;20.624;2024-03-02T01:22:40;6.50;;;4.40;;
55461;SDS011;41327;45.102;20.624;2024-03-02T01:25:05;9.85;;;4.93;;
55461;SDS011;41327;45.102;20.624;2024-03-02T01:27:31;8.18;;;4.72;;
55461;SDS011;41327;45.102;20.624;2024-03-02T01:29:56;5.53;;;4.45;;
55461;SDS011;41327;45.102;20.624;2024-03-02T01:32:22;6.88;;;3.97;;
55461;SDS011;41327;45.102;20.624;2024-03-02T01:34:47;8.00;;;4.97;;
55461;SDS011;41327;45.102;20.624;2024-03-02T01:37:13;8.07;;;5.00;;
55461;SDS011;41327;45.102;20.624;2024-03-02T01:39:38;7.45;;;4.05;;
55461;SDS011;41327;45.102;20.624;2024-03-02T01:42:04;5.55;;;4.35;;
55461;SDS011;41327;45.102;20.624;2024-03-02T01:44:30;12.15;;;5.00;;
55461;SDS011;41327;45.102;20.624;2024-03-02T01:46:55;6.03;;;3.88;;
55461;SDS011;41327;45.102;20.624;2024-03-02T01:49:21;4.50;;;3.65;;
55461;SDS011;41327;45.102;20.624;2024-03-02T01:51:46;6.53;;;4.35;;
55461;SDS011;41327;45.102;20.624;2024-03-02T01:54:11;8.90;;;4.60;;
55461;SDS011;41327;45.102;20.624;2024-03-02T01:56:37;9.80;;;5.03;;
55461;SDS011;41327;45.102;20.624;2024-03-02T01:59:02;8.50;;;4.65;;
55461;SDS011;41327;45.102;20.624;2024-03-02T02:01:28;7.43;;;4.60;;
55461;SDS011;41327;45.102;20.624;2024-03-02T02:03:54;8.73;;;4.72;;
55461;SDS011;41327;45.102;20.624;2024-03-02T02:06:19;7.05;;;3.38;;
55461;SDS011;41327;45.102;20.624;2024-03-02T02:08:45;5.68;;;3.92;;
55461;SDS011;41327;45.102;20.624;2024-03-02T02:11:14;9.77;;;5.07;;
55461;SDS011;41327;45.102;20.624;2024-03-02T02:13:40;7.93;;;4.40;;
55461;SDS011;41327;45.102;20.624;2024-03-02T02:16:09;8.63;;;4.78;;
55461;SDS011;41327;45.102;20.624;2024-03-02T02:18:34;5.88;;;4.18;;
55461;SDS011;41327;45.102;20.624;2024-03-02T02:21:01;7.35;;;4.70;;
55461;SDS011;41327;45.102;20.624;2024-03-02T02:23:27;7.80;;;4.90;;
55461;SDS011;41327;45.102;20.624;2024-03-02T02:25:52;6.10;;;4.70;;
55461;SDS011;41327;45.102;20.624;2024-03-02T02:28:18;7.43;;;4.95;;
55461;SDS011;41327;45.102;20.624;2024-03-02T02:30:43;6.97;;;3.72;;
55461;SDS011;41327;45.102;20.624;2024-03-02T02:33:09;6.78;;;4.63;;
55461;SDS011;41327;45.102;20.624;2024-03-02T02:35:34;7.10;;;3.95;;
55461;SDS011;41327;45.102;20.624;2024-03-02T02:38:00;8.05;;;4.90;;
55461;SDS011;41327;45.102;20.624;2024-03-02T02:40:26;5.15;;;3.60;;
55461;SDS011;41327;45.102;20.624;2024-03-02T02:42:52;9.32;;;4.90;;
55461;SDS011;41327;45.102;20.624;2024-03-02T02:45:17;6.93;;;4.47;;
55461;SDS011;41327;45.102;20.624;2024-03-02T02:47:43;7.63;;;4.18;;
55461;SDS011;41327;45.102;20.624;2024-03-02T02:50:10;6.47;;;4.45;;
55461;SDS011;41327;45.102;20.624;2024-03-02T02:52:36;8.30;;;4.90;;
55461;SDS011;41327;45.102;20.624;2024-03-02T02:55:05;8.20;;;4.90;;
55461;SDS011;41327;45.102;20.624;2024-03-02T02:57:32;6.78;;;4.13;;
55461;SDS011;41327;45.102;20.624;2024-03-02T03:00:06;8.20;;;4.78;;
55461;SDS011;41327;45.102;20.624;2024-03-02T03:02:39;6.70;;;4.20;;
55461;SDS011;41327;45.102;20.624;2024-03-02T03:05:09;8.63;;;4.65;;
55461;SDS011;41327;45.102;20.624;2024-03-02T03:07:35;9.18;;;4.70;;
55461;SDS011;41327;45.102;20.624;2024-03-02T03:10:01;6.28;;;4.45;;
55461;SDS011;41327;45.102;20.624;2024-03-02T03:12:28;8.45;;;3.97;;
55461;SDS011;41327;45.102;20.624;2024-03-02T03:14:54;7.30;;;4.72;;
55461;SDS011;41327;45.102;20.624;2024-03-02T03:17:20;5.50;;;3.47;;
55461;SDS011;41327;45.102;20.624;2024-03-02T03:19:46;4.95;;;3.30;;
55461;SDS011;41327;45.102;20.624;2024-03-02T03:22:12;5.72;;;3.72;;
55461;SDS011;41327;45.102;20.624;2024-03-02T03:24:38;5.53;;;3.42;;
55461;SDS011;41327;45.102;20.624;2024-03-02T03:27:04;7.18;;;4.05;;
55461;SDS011;41327;45.102;20.624;2024-03-02T03:29:29;9.75;;;3.97;;
55461;SDS011;41327;45.102;20.624;2024-03-02T03:31:55;4.88;;;2.95;;
55461;SDS011;41327;45.102;20.624;2024-03-02T03:34:20;4.95;;;3.58;;
55461;SDS011;41327;45.102;20.624;2024-03-02T03:36:46;6.82;;;4.20;;
55461;SDS011;41327;45.102;20.624;2024-03-02T03:39:11;5.18;;;3.88;;
55461;SDS011;41327;45.102;20.624;2024-03-02T03:41:37;5.38;;;4.05;;
55461;SDS011;41327;45.102;20.624;2024-03-02T03:44:02;9.30;;;4.10;;
55461;SDS011;41327;45.102;20.624;2024-03-02T03:46:28;5.80;;;3.47;;
55461;SDS011;41327;45.102;20.624;2024-03-02T03:48:54;5.70;;;3.42;;
55461;SDS011;41327;45.102;20.624;2024-03-02T03:51:21;7.45;;;4.15;;
55461;SDS011;41327;45.102;20.624;2024-03-02T03:53:48;4.25;;;3.40;;
55461;SDS011;41327;45.102;20.624;2024-03-02T03:56:13;6.45;;;3.45;;
55461;SDS011;41327;45.102;20.624;2024-03-02T03:58:39;5.65;;;3.95;;
55461;SDS011;41327;45.102;20.624;2024-03-02T04:01:04;5.65;;;3.33;;
55461;SDS011;41327;45.102;20.624;2024-03-02T04:03:30;6.13;;;3.90;;
55461;SDS011;41327;45.102;20.624;2024-03-02T04:05:55;5.20;;;3.30;;
55461;SDS011;41327;45.102;20.624;2024-03-02T04:08:21;9.77;;;4.88;;
55461;SDS011;41327;45.102;20.624;2024-03-02T04:10:46;6.53;;;4.10;;
55461;SDS011;41327;45.102;20.624;2024-03-02T04:13:12;8.10;;;4.20;;
55461;SDS011;41327;45.102;20.624;2024-03-02T04:15:38;6.50;;;3.63;;
55461;SDS011;41327;45.102;20.624;2024-03-02T04:18:03;13.93;;;4.10;;
55461;SDS011;41327;45.102;20.624;2024-03-02T04:20:29;5.03;;;3.30;;
55461;SDS011;41327;45.102;20.624;2024-03-02T04:22:55;4.93;;;3.00;;
55461;SDS011;41327;45.102;20.624;2024-03-02T04:25:20;6.38;;;4.28;;
55461;SDS011;41327;45.102;20.624;2024-03-02T04:27:46;5.72;;;3.78;;
55461;SDS011;41327;45.102;20.624;2024-03-02T04:30:12;9.23;;;4.05;;
55461;SDS011;41327;45.102;20.624;2024-03-02T04:32:37;4.85;;;3.13;;
55461;SDS011;41327;45.102;20.624;2024-03-02T04:35:04;5.85;;;3.70;;
55461;SDS011;41327;45.102;20.624;2024-03-02T04:37:31;5.88;;;3.47;;
55461;SDS011;41327;45.102;20.624;2024-03-02T04:39:58;3.85;;;2.63;;
55461;SDS011;41327;45.102;20.624;2024-03-02T04:42:23;3.83;;;2.17;;
55461;SDS011;41327;45.102;20.624;2024-03-02T04:44:49;5.13;;;3.33;;
55461;SDS011;41327;45.102;20.624;2024-03-02T04:47:15;8.35;;;3.80;;
55461;SDS011;41327;45.102;20.624;2024-03-02T04:49:40;6.53;;;3.28;;
55461;SDS011;41327;45.102;20.624;2024-03-02T04:52:06;4.60;;;2.78;;
55461;SDS011;41327;45.102;20.624;2024-03-02T04:54:31;4.95;;;3.08;;
55461;SDS011;41327;45.102;20.624;2024-03-02T04:56:57;6.15;;;3.75;;
55461;SDS011;41327;45.102;20.624;2024-03-02T04:59:23;5.43;;;2.58;;
55461;SDS011;41327;45.102;20.624;2024-03-02T05:01:49;4.53;;;3.17;;
55461;SDS011;41327;45.102;20.624;2024-03-02T05:04:14;5.47;;;3.08;;
55461;SDS011;41327;45.102;20.624;2024-03-02T05:06:40;6.45;;;2.90;;
55461;SDS011;41327;45.102;20.624;2024-03-02T05:09:06;5.18;;;3.05;;
55461;SDS011;41327;45.102;20.624;2024-03-02T05:11:32;5.18;;;3.03;;
55461;SDS011;41327;45.102;20.624;2024-03-02T05:14:04;5.65;;;2.90;;
55461;SDS011;41327;45.102;20.624;2024-03-02T05:16:36;4.80;;;3.15;;
55461;SDS011;41327;45.102;20.624;2024-03-02T05:19:03;4.95;;;3.35;;
55461;SDS011;41327;45.102;20.624;2024-03-02T05:21:31;4.00;;;2.33;;
55461;SDS011;41327;45.102;20.624;2024-03-02T05:23:57;6.22;;;3.75;;
55461;SDS011;41327;45.102;20.624;2024-03-02T05:26:22;5.43;;;2.45;;
55461;SDS011;41327;45.102;20.624;2024-03-02T05:28:48;5.25;;;3.28;;
55461;SDS011;41327;45.102;20.624;2024-03-02T05:31:16;6.72;;;3.00;;
55461;SDS011;41327;45.102;20.624;2024-03-02T05:33:42;5.03;;;2.88;;
55461;SDS011;41327;45.102;20.624;2024-03-02T05:36:08;2.67;;;2.10;;
55461;SDS011;41327;45.102;20.624;2024-03-02T05:38:34;5.38;;;3.10;;
55461;SDS011;41327;45.102;20.624;2024-03-02T05:41:00;7.45;;;3.78;;
55461;SDS011;41327;45.102;20.624;2024-03-02T05:43:26;5.63;;;2.63;;
55461;SDS011;41327;45.102;20.624;2024-03-02T05:45:51;4.22;;;2.58;;
55461;SDS011;41327;45.102;20.624;2024-03-02T05:48:17;5.07;;;2.75;;
55461;SDS011;41327;45.102;20.624;2024-03-02T05:50:42;5.43;;;2.80;;
55461;SDS011;41327;45.102;20.624;2024-03-02T05:53:08;7.40;;;3.15;;
55461;SDS011;41327;45.102;20.624;2024-03-02T05:55:33;6.25;;;3.15;;
55461;SDS011;41327;45.102;20.624;2024-03-02T05:57:59;4.10;;;2.80;;
55461;SDS011;41327;45.102;20.624;2024-03-02T06:00:27;5.82;;;2.88;;
55461;SDS011;41327;45.102;20.624;2024-03-02T06:02:53;3.75;;;3.10;;
55461;SDS011;41327;45.102;20.624;2024-03-02T06:05:18;5.00;;;2.92;;
55461;SDS011;41327;45.102;20.624;2024-03-02T06:07:44;3.65;;;2.50;;
55461;SDS011;41327;45.102;20.624;2024-03-02T06:10:09;6.60;;;3.47;;
55461;SDS011;41327;45.102;20.624;2024-03-02T06:12:36;5.38;;;2.60;;
55461;SDS011;41327;45.102;20.624;2024-03-02T06:15:02;4.93;;;2.95;;
55461;SDS011;41327;45.102;20.624;2024-03-02T06:17:29;4.90;;;2.67;;
55461;SDS011;41327;45.102;20.624;2024-03-02T06:19:54;4.57;;;2.97;;
55461;SDS011;41327;45.102;20.624;2024-03-02T06:22:20;5.72;;;3.10;;
55461;SDS011;41327;45.102;20.624;2024-03-02T06:24:48;5.78;;;2.80;;
55461;SDS011;41327;45.102;20.624;2024-03-02T06:27:14;5.70;;;3.50;;
55461;SDS011;41327;45.102;20.624;2024-03-02T06:29:39;5.07;;;3.08;;
55461;SDS011;41327;45.102;20.624;2024-03-02T06:32:05;6.47;;;3.15;;
55461;SDS011;41327;45.102;20.624;2024-03-02T06:34:31;7.93;;;2.80;;
55461;SDS011;41327;45.102;20.624;2024-03-02T06:36:56;3.97;;;2.63;;
55461;SDS011;41327;45.102;20.624;2024-03-02T06:39:22;4.88;;;2.65;;
55461;SDS011;41327;45.102;20.624;2024-03-02T06:41:47;3.55;;;2.42;;
55461;SDS011;41327;45.102;20.624;2024-03-02T06:44:13;4.57;;;2.70;;
55461;SDS011;41327;45.102;20.624;2024-03-02T06:46:38;4.28;;;2.13;;
55461;SDS011;41327;45.102;20.624;2024-03-02T06:49:04;5.78;;;2.83;;
55461;SDS011;41327;45.102;20.624;2024-03-02T06:51:29;5.18;;;2.33;;
55461;SDS011;41327;45.102;20.624;2024-03-02T06:53:55;2.17;;;1.73;;
55461;SDS011;41327;45.102;20.624;2024-03-02T06:56:21;8.15;;;2.60;;
55461;SDS011;41327;45.102;20.624;2024-03-02T06:58:46;3.83;;;2.70;;
55461;SDS011;41327;45.102;20.624;2024-03-02T07:01:12;4.53;;;2.83;;
55461;SDS011;41327;45.102;20.624;2024-03-02T07:03:38;4.20;;;2.67;;
55461;SDS011;41327;45.102;20.624;2024-03-02T07:06:06;2.92;;;1.95;;
55461;SDS011;41327;45.102;20.624;2024-03-02T07:08:31;5.60;;;2.45;;
55461;SDS011;41327;45.102;20.624;2024-03-02T07:10:57;6.63;;;3.33;;
55461;SDS011;41327;45.102;20.624;2024-03-02T07:13:23;4.80;;;2.92;;
55461;SDS011;41327;45.102;20.624;2024-03-02T07:15:48;6.25;;;3.42;;
55461;SDS011;41327;45.102;20.624;2024-03-02T07:18:29;13.15;;;7.00;;
55461;SDS011;41327;45.102;20.624;2024-03-02T07:20:58;4.82;;;3.42;;
55461;SDS011;41327;45.102;20.624;2024-03-02T07:23:26;4.10;;;2.47;;
55461;SDS011;41327;45.102;20.624;2024-03-02T07:25:53;3.30;;;1.95;;
55461;SDS011;41327;45.102;20.624;2024-03-02T07:28:22;4.82;;;2.90;;
55461;SDS011;41327;45.102;20.624;2024-03-02T07:30:57;4.55;;;2.97;;
55461;SDS011;41327;45.102;20.624;2024-03-02T07:33:25;3.05;;;2.75;;
55461;SDS011;41327;45.102;20.624;2024-03-02T07:35:50;3.35;;;2.60;;
55461;SDS011;41327;45.102;20.624;2024-03-02T07:38:16;2.33;;;2.00;;
55461;SDS011;41327;45.102;20.624;2024-03-02T07:40:42;2.47;;;1.70;;
55461;SDS011;41327;45.102;20.624;2024-03-02T07:43:07;8.05;;;3.60;;
55461;SDS011;41327;45.102;20.624;2024-03-02T07:45:34;3.88;;;1.85;;
55461;SDS011;41327;45.102;20.624;2024-03-02T07:48:01;5.55;;;2.55;;
55461;SDS011;41327;45.102;20.624;2024-03-02T07:50:29;6.35;;;2.55;;
55461;SDS011;41327;45.102;20.624;2024-03-02T07:52:55;4.90;;;2.90;;
55461;SDS011;41327;45.102;20.624;2024-03-02T07:55:21;2.72;;;1.73;;
55461;SDS011;41327;45.102;20.624;2024-03-02T07:57:46;3.60;;;2.45;;
55461;SDS011;41327;45.102;20.624;2024-03-02T08:00:12;8.32;;;4.40;;
55461;SDS011;41327;45.102;20.624;2024-03-02T08:02:37;4.35;;;2.17;;
55461;SDS011;41327;45.102;20.624;2024-03-02T08:05:03;3.45;;;2.20;;
55461;SDS011;41327;45.102;20.624;2024-03-02T08:07:29;6.65;;;2.28;;
55461;SDS011;41327;45.102;20.624;2024-03-02T08:09:54;5.43;;;2.40;;
55461;SDS011;41327;45.102;20.624;2024-03-02T08:12:20;3.60;;;2.15;;
55461;SDS011;41327;45.102;20.624;2024-03-02T08:14:48;3.03;;;2.40;;
55461;SDS011;41327;45.102;20.624;2024-03-02T08:17:14;5.75;;;2.65;;
55461;SDS011;41327;45.102;20.624;2024-03-02T08:19:40;4.80;;;2.65;;
55461;SDS011;41327;45.102;20.624;2024-03-02T08:22:06;5.28;;;2.35;;
55461;SDS011;41327;45.102;20.624;2024-03-02T08:24:32;3.72;;;2.28;;
55461;SDS011;41327;45.102;20.624;2024-03-02T08:26:59;3.58;;;2.17;;
55461;SDS011;41327;45.102;20.624;2024-03-02T08:29:29;7.13;;;2.80;;
55461;SDS011;41327;45.102;20.624;2024-03-02T08:31:55;5.65;;;3.13;;
55461;SDS011;41327;45.102;20.624;2024-03-02T08:34:20;3.13;;;2.03;;
55461;SDS011;41327;45.102;20.624;2024-03-02T08:36:46;6.03;;;2.13;;
55461;SDS011;41327;45.102;20.624;2024-03-02T08:39:12;7.13;;;2.78;;
55461;SDS011;41327;45.102;20.624;2024-03-02T08:41:46;11.48;;;6.13;;
55461;SDS011;41327;45.102;20.624;2024-03-02T08:44:14;4.18;;;2.53;;
55461;SDS011;41327;45.102;20.624;2024-03-02T08:46:39;4.85;;;2.63;;
55461;SDS011;41327;45.102;20.624;2024-03-02T08:49:06;2.55;;;1.83;;
55461;SDS011;41327;45.102;20.624;2024-03-02T08:51:32;3.63;;;2.35;;
55461;SDS011;41327;45.102;20.624;2024-03-02T08:53:57;3.42;;;2.15;;
55461;SDS011;41327;45.102;20.624;2024-03-02T08:56:23;2.25;;;1.73;;
55461;SDS011;41327;45.102;20.624;2024-03-02T08:58:49;3.53;;;1.70;;
55461;SDS011;41327;45.102;20.624;2024-03-02T09:01:16;4.07;;;2.55;;
55461;SDS011;41327;45.102;20.624;2024-03-02T09:03:42;4.22;;;2.55;;
55461;SDS011;41327;45.102;20.624;2024-03-02T09:06:10;3.63;;;2.03;;
55461;SDS011;41327;45.102;20.624;2024-03-02T09:08:36;6.53;;;2.60;;
55461;SDS011;41327;45.102;20.624;2024-03-02T09:11:05;2.47;;;1.80;;
55461;SDS011;41327;45.102;20.624;2024-03-02T09:13:31;2.45;;;1.58;;
55461;SDS011;41327;45.102;20.624;2024-03-02T09:15:57;4.03;;;2.05;;
55461;SDS011;41327;45.102;20.624;2024-03-02T09:18:23;2.70;;;1.83;;
55461;SDS011;41327;45.102;20.624;2024-03-02T09:20:48;4.47;;;2.53;;
55461;SDS011;41327;45.102;20.624;2024-03-02T09:23:14;3.70;;;1.63;;
55461;SDS011;41327;45.102;20.624;2024-03-02T09:25:39;2.58;;;1.67;;
55461;SDS011;41327;45.102;20.624;2024-03-02T09:28:05;2.63;;;1.65;;
55461;SDS011;41327;45.102;20.624;2024-03-02T09:30:32;4.22;;;1.92;;
55461;SDS011;41327;45.102;20.624;2024-03-02T09:32:57;3.53;;;2.60;;
55461;SDS011;41327;45.102;20.624;2024-03-02T09:35:23;5.65;;;3.25;;
55461;SDS011;41327;45.102;20.624;2024-03-02T09:37:48;4.05;;;2.05;;
55461;SDS011;41327;45.102;20.624;2024-03-02T09:40:14;3.35;;;2.22;;
55461;SDS011;41327;45.102;20.624;2024-03-02T09:42:40;3.25;;;1.75;;
55461;SDS011;41327;45.102;20.624;2024-03-02T09:45:06;2.00;;;1.67;;
55461;SDS011;41327;45.102;20.624;2024-03-02T09:47:32;2.60;;;2.05;;
55461;SDS011;41327;45.102;20.624;2024-03-02T09:49:57;4.68;;;2.28;;
55461;SDS011;41327;45.102;20.624;2024-03-02T09:52:23;3.47;;;2.08;;
55461;SDS011;41327;45.102;20.624;2024-03-02T09:54:49;3.38;;;2.10;;
55461;SDS011;41327;45.102;20.624;2024-03-02T09:57:15;6.75;;;2.78;;
55461;SDS011;41327;45.102;20.624;2024-03-02T09:59:40;3.63;;;2.10;;
55461;SDS011;41327;45.102;20.624;2024-03-02T10:02:06;6.88;;;3.72;;
55461;SDS011;41327;45.102;20.624;2024-03-02T10:04:32;7.25;;;3.88;;
55461;SDS011;41327;45.102;20.624;2024-03-02T10:09:43;8.45;;;3.67;;
55461;SDS011;41327;45.102;20.624;2024-03-02T10:12:13;8.02;;;2.50;;
55461;SDS011;41327;45.102;20.624;2024-03-02T10:14:40;5.10;;;2.38;;
55461;SDS011;41327;45.102;20.624;2024-03-02T10:17:06;5.22;;;2.42;;
55461;SDS011;41327;45.102;20.624;2024-03-02T10:19:34;6.13;;;3.38;;
55461;SDS011;41327;45.102;20.624;2024-03-02T10:22:01;10.38;;;5.00;;
55461;SDS011;41327;45.102;20.624;2024-03-02T10:24:44;7.35;;;3.60;;
55461;SDS011;41327;45.102;20.624;2024-03-02T10:27:15;12.85;;;4.90;;
55461;SDS011;41327;45.102;20.624;2024-03-02T10:29:42;5.88;;;3.22;;
55461;SDS011;41327;45.102;20.624;2024-03-02T10:32:10;6.57;;;2.85;;
55461;SDS011;41327;45.102;20.624;2024-03-02T10:34:37;8.57;;;2.95;;
55461;SDS011;41327;45.102;20.624;2024-03-02T10:37:05;6.28;;;3.15;;
55461;SDS011;41327;45.102;20.624;2024-03-02T10:39:32;6.90;;;3.00;;
55461;SDS011;41327;45.102;20.624;2024-03-02T10:42:00;7.80;;;4.22;;
55461;SDS011;41327;45.102;20.624;2024-03-02T10:44:28;6.15;;;3.97;;
55461;SDS011;41327;45.102;20.624;2024-03-02T10:46:54;6.22;;;3.30;;
55461;SDS011;41327;45.102;20.624;2024-03-02T10:49:21;9.00;;;4.47;;
55461;SDS011;41327;45.102;20.624;2024-03-02T10:51:48;7.75;;;5.47;;
55461;SDS011;41327;45.102;20.624;2024-03-02T10:54:13;7.88;;;3.33;;
55461;SDS011;41327;45.102;20.624;2024-03-02T10:56:40;11.15;;;5.57;;
55461;SDS011;41327;45.102;20.624;2024-03-02T11:01:59;7.22;;;3.40;;
55461;SDS011;41327;45.102;20.624;2024-03-02T11:04:26;14.20;;;7.15;;
55461;SDS011;41327;45.102;20.624;2024-03-02T11:07:00;15.48;;;5.38;;
55461;SDS011;41327;45.102;20.624;2024-03-02T11:09:29;12.48;;;6.38;;
55461;SDS011;41327;45.102;20.624;2024-03-02T11:12:02;9.02;;;3.78;;
55461;SDS011;41327;45.102;20.624;2024-03-02T11:14:31;6.13;;;2.95;;
55461;SDS011;41327;45.102;20.624;2024-03-02T11:16:58;7.30;;;3.47;;
55461;SDS011;41327;45.102;20.624;2024-03-02T11:19:25;4.35;;;2.35;;
55461;SDS011;41327;45.102;20.624;2024-03-02T11:21:53;4.05;;;2.63;;
55461;SDS011;41327;45.102;20.624;2024-03-02T11:26:46;7.43;;;3.97;;
55461;SDS011;41327;45.102;20.624;2024-03-02T11:29:54;2.90;;;2.40;;
55461;SDS011;41327;45.102;20.624;2024-03-02T11:32:01;4.20;;;2.63;;
55461;SDS011;41327;45.102;20.624;2024-03-02T11:34:32;3.33;;;1.85;;
55461;SDS011;41327;45.102;20.624;2024-03-02T11:37:04;4.72;;;2.60;;
55461;SDS011;41327;45.102;20.624;2024-03-02T11:39:31;7.03;;;3.35;;
55461;SDS011;41327;45.102;20.624;2024-03-02T11:42:05;4.40;;;1.77;;
55461;SDS011;41327;45.102;20.624;2024-03-02T11:44:39;3.90;;;1.85;;
55461;SDS011;41327;45.102;20.624;2024-03-02T11:47:10;4.95;;;2.60;;
55461;SDS011;41327;45.102;20.624;2024-03-02T11:49:40;2.95;;;2.13;;
55461;SDS011;41327;45.102;20.624;2024-03-02T11:52:13;3.13;;;2.40;;
55461;SDS011;41327;45.102;20.624;2024-03-02T11:54:41;5.70;;;3.50;;
55461;SDS011;41327;45.102;20.624;2024-03-02T11:57:17;3.53;;;2.35;;
55461;SDS011;41327;45.102;20.624;2024-03-02T11:59:44;3.88;;;2.42;;
55461;SDS011;41327;45.102;20.624;2024-03-02T12:02:17;4.95;;;2.42;;
55461;SDS011;41327;45.102;20.624;2024-03-02T12:04:44;4.68;;;2.35;;
55461;SDS011;41327;45.102;20.624;2024-03-02T12:07:11;6.53;;;3.38;;
55461;SDS011;41327;45.102;20.624;2024-03-02T12:09:38;2.78;;;1.80;;
55461;SDS011;41327;45.102;20.624;2024-03-02T12:12:07;3.33;;;2.10;;
55461;SDS011;41327;45.102;20.624;2024-03-02T12:14:34;2.17;;;1.77;;
55461;SDS011;41327;45.102;20.624;2024-03-02T12:17:03;6.65;;;2.88;;
55461;SDS011;41327;45.102;20.624;2024-03-02T12:19:32;8.85;;;3.90;;
55461;SDS011;41327;45.102;20.624;2024-03-02T12:21:59;5.78;;;3.60;;
55461;SDS011;41327;45.102;20.624;2024-03-02T12:24:29;2.88;;;2.33;;
55461;SDS011;41327;45.102;20.624;2024-03-02T12:26:54;5.57;;;2.13;;
55461;SDS011;41327;45.102;20.624;2024-03-02T12:29:20;3.58;;;2.10;;
55461;SDS011;41327;45.102;20.624;2024-03-02T12:31:49;10.93;;;2.75;;
55461;SDS011;41327;45.102;20.624;2024-03-02T12:34:16;1.95;;;1.50;;
55461;SDS011;41327;45.102;20.624;2024-03-02T12:36:42;7.93;;;2.65;;
55461;SDS011;41327;45.102;20.624;2024-03-02T12:39:08;2.80;;;2.10;;
55461;SDS011;41327;45.102;20.624;2024-03-02T12:41:37;5.55;;;3.40;;
55461;SDS011;41327;45.102;20.624;2024-03-02T12:44:03;7.20;;;2.70;;
55461;SDS011;41327;45.102;20.624;2024-03-02T12:46:30;4.13;;;2.13;;
55461;SDS011;41327;45.102;20.624;2024-03-02T12:48:56;8.88;;;3.63;;
55461;SDS011;41327;45.102;20.624;2024-03-02T12:51:22;10.60;;;5.28;;
55461;SDS011;41327;45.102;20.624;2024-03-02T12:53:57;7.70;;;4.75;;
55461;SDS011;41327;45.102;20.624;2024-03-02T12:56:23;2.85;;;2.13;;
55461;SDS011;41327;45.102;20.624;2024-03-02T12:58:53;3.38;;;2.53;;
55461;SDS011;41327;45.102;20.624;2024-03-02T13:01:19;5.05;;;2.80;;
55461;SDS011;41327;45.102;20.624;2024-03-02T13:03:45;5.75;;;2.35;;
55461;SDS011;41327;45.102;20.624;2024-03-02T13:06:13;3.63;;;1.90;;
55461;SDS011;41327;45.102;20.624;2024-03-02T13:08:39;3.30;;;2.38;;
55461;SDS011;41327;45.102;20.624;2024-03-02T13:11:05;6.90;;;2.65;;
55461;SDS011;41327;45.102;20.624;2024-03-02T13:13:32;3.72;;;1.92;;
55461;SDS011;41327;45.102;20.624;2024-03-02T13:15:58;5.15;;;2.60;;
55461;SDS011;41327;45.102;20.624;2024-03-02T13:18:23;8.38;;;3.28;;
55461;SDS011;41327;45.102;20.624;2024-03-02T13:20:49;6.22;;;3.08;;
55461;SDS011;41327;45.102;20.624;2024-03-02T13:23:14;4.07;;;2.78;;
55461;SDS011;41327;45.102;20.624;2024-03-02T13:25:40;4.35;;;2.33;;
55461;SDS011;41327;45.102;20.624;2024-03-02T13:28:06;3.38;;;2.03;;
55461;SDS011;41327;45.102;20.624;2024-03-02T13:30:32;4.95;;;1.90;;
55461;SDS011;41327;45.102;20.624;2024-03-02T13:32:58;3.45;;;2.10;;
55461;SDS011;41327;45.102;20.624;2024-03-02T13:35:24;5.20;;;1.75;;
55461;SDS011;41327;45.102;20.624;2024-03-02T13:37:49;2.90;;;1.83;;
55461;SDS011;41327;45.102;20.624;2024-03-02T13:40:15;3.88;;;1.90;;
55461;SDS011;41327;45.102;20.624;2024-03-02T13:42:45;3.70;;;2.30;;
55461;SDS011;41327;45.102;20.624;2024-03-02T13:45:12;3.05;;;2.28;;
55461;SDS011;41327;45.102;20.624;2024-03-02T13:47:38;5.03;;;2.45;;
55461;SDS011;41327;45.102;20.624;2024-03-02T13:50:04;3.85;;;2.05;;
55461;SDS011;41327;45.102;20.624;2024-03-02T13:52:30;2.90;;;1.92;;
55461;SDS011;41327;45.102;20.624;2024-03-02T13:54:56;4.63;;;1.80;;
55461;SDS011;41327;45.102;20.624;2024-03-02T13:57:22;3.47;;;2.22;;
55461;SDS011;41327;45.102;20.624;2024-03-02T13:59:47;7.68;;;3.38;;
55461;SDS011;41327;45.102;20.624;2024-03-02T14:02:13;3.70;;;2.38;;
55461;SDS011;41327;45.102;20.624;2024-03-02T14:04:39;4.85;;;2.78;;
55461;SDS011;41327;45.102;20.624;2024-03-02T14:07:05;4.75;;;2.08;;
55461;SDS011;41327;45.102;20.624;2024-03-02T14:09:33;2.83;;;2.35;;
55461;SDS011;41327;45.102;20.624;2024-03-02T14:11:59;6.03;;;2.90;;
55461;SDS011;41327;45.102;20.624;2024-03-02T14:14:27;2.95;;;1.92;;
55461;SDS011;41327;45.102;20.624;2024-03-02T14:16:54;12.65;;;5.30;;
55461;SDS011;41327;45.102;20.624;2024-03-02T14:19:20;5.57;;;2.65;;
55461;SDS011;41327;45.102;20.624;2024-03-02T14:21:46;7.30;;;3.47;;
55461;SDS011;41327;45.102;20.624;2024-03-02T14:24:13;6.00;;;2.17;;
55461;SDS011;41327;45.102;20.624;2024-03-02T14:26:38;4.32;;;2.67;;
55461;SDS011;41327;45.102;20.624;2024-03-02T14:29:04;4.70;;;2.85;;
55461;SDS011;41327;45.102;20.624;2024-03-02T14:31:30;3.00;;;1.92;;
55461;SDS011;41327;45.102;20.624;2024-03-02T14:33:56;3.85;;;1.73;;
55461;SDS011;41327;45.102;20.624;2024-03-02T14:36:22;2.13;;;1.77;;
55461;SDS011;41327;45.102;20.624;2024-03-02T14:38:48;4.18;;;2.50;;
55461;SDS011;41327;45.102;20.624;2024-03-02T14:41:14;3.80;;;1.80;;
55461;SDS011;41327;45.102;20.624;2024-03-02T14:43:39;3.42;;;2.42;;
55461;SDS011;41327;45.102;20.624;2024-03-02T14:46:05;3.97;;;2.15;;